createdAt,value
2019-02-02T00:02:01.378Z,22.03
2019-02-02T00:04:31.663Z,21.43
2019-02-02T00:07:01.950Z,20.83
2019-02-02T00:09:32.189Z,20.50
2019-02-02T00:12:02.514Z,20.37
2019-02-02T00:14:32.775Z,20.20
2019-02-02T00:17:03.035Z,19.87
2019-02-02T00:19:33.405Z,19.53
2019-02-02T00:22:05.186Z,19.77
2019-02-02T00:24:35.412Z,19.27
2019-02-02T00:27:06.643Z,20.37
2019-02-02T00:29:36.865Z,20.07
2019-02-02T00:32:07.119Z,20.97
2019-02-02T00:34:37.436Z,19.23
2019-02-02T00:37:07.763Z,19.63
2019-02-02T00:39:38.148Z,19.10
2019-02-02T00:42:08.407Z,19.10
2019-02-02T00:44:38.749Z,19.17
2019-02-02T00:47:09.065Z,19.23
2019-02-02T00:49:39.343Z,19.30
2019-02-02T00:52:09.829Z,18.23
2019-02-02T00:54:40.107Z,17.87
2019-02-02T00:57:10.652Z,20.03
2019-02-02T00:59:40.768Z,19.53
2019-02-02T01:02:11.588Z,20.33
2019-02-02T01:04:42.325Z,20.37
2019-02-02T01:07:12.722Z,20.80
2019-02-02T01:09:43.323Z,19.90
2019-02-02T01:12:13.655Z,19.83
2019-02-02T01:14:44.175Z,18.70
2019-02-02T01:17:14.420Z,18.87
2019-02-02T01:19:44.648Z,19.20
2019-02-02T01:22:15.006Z,18.73
2019-02-02T01:24:45.187Z,18.77
2019-02-02T01:27:15.547Z,19.87
2019-02-02T01:29:45.743Z,20.60
2019-02-02T01:32:16.076Z,21.23
2019-02-02T01:34:46.400Z,22.60
2019-02-02T01:37:16.494Z,21.90
2019-02-02T01:39:46.930Z,22.17
2019-02-02T01:42:17.537Z,21.90
2019-02-02T01:44:47.796Z,21.10
2019-02-02T01:47:18.387Z,19.83
2019-02-02T01:49:48.890Z,20.00
2019-02-02T01:52:19.082Z,20.00
2019-02-02T01:54:49.402Z,19.17
2019-02-02T01:57:19.686Z,20.80
2019-02-02T01:59:49.919Z,20.40
2019-02-02T02:02:20.244Z,21.07
2019-02-02T02:04:50.516Z,21.40
2019-02-02T02:07:20.787Z,22.60
2019-02-02T02:09:50.954Z,20.57
2019-02-02T02:12:21.311Z,20.90
2019-02-02T02:14:51.464Z,19.47
2019-02-02T02:17:21.719Z,20.37
2019-02-02T02:19:51.998Z,21.97
2019-02-02T02:22:22.812Z,21.43
2019-02-02T02:24:53.305Z,20.03
2019-02-02T02:27:23.602Z,21.30
2019-02-02T02:29:53.823Z,22.27
2019-02-02T02:32:24.481Z,21.03
2019-02-02T02:34:55.030Z,21.63
2019-02-02T02:37:25.146Z,22.43
2019-02-02T02:39:55.485Z,22.17
2019-02-02T02:42:25.775Z,21.53
2019-02-02T02:44:56.029Z,23.03
2019-02-02T02:47:26.204Z,21.93
2019-02-02T02:49:56.411Z,21.83
2019-02-02T02:52:26.741Z,22.17
2019-02-02T02:54:56.931Z,21.93
2019-02-02T02:57:27.250Z,22.13
2019-02-02T02:59:57.392Z,22.67
2019-02-02T03:02:27.842Z,24.83
2019-02-02T03:04:58.101Z,26.10
2019-02-02T03:07:28.762Z,22.87
2019-02-02T03:09:59.070Z,27.00
2019-02-02T03:12:29.360Z,26.93
2019-02-02T03:14:59.576Z,24.97
2019-02-02T03:17:29.759Z,26.30
2019-02-02T03:19:59.907Z,25.30
2019-02-02T03:22:30.202Z,25.40
2019-02-02T03:25:00.608Z,24.33
2019-02-02T03:27:30.936Z,26.17
2019-02-02T03:30:01.156Z,25.50
2019-02-02T03:32:31.406Z,25.13
2019-02-02T03:35:01.701Z,25.30
2019-02-02T03:37:31.919Z,23.93
2019-02-02T03:40:02.372Z,24.37
2019-02-02T03:42:32.910Z,25.43
2019-02-02T03:45:03.296Z,24.17
2019-02-02T03:47:33.589Z,24.17
2019-02-02T03:50:04.511Z,26.00
2019-02-02T03:52:34.920Z,25.70
2019-02-02T03:55:05.920Z,24.27
2019-02-02T03:57:36.099Z,25.33
2019-02-02T04:00:09.156Z,24.93
2019-02-02T04:02:39.220Z,26.07
2019-02-02T04:05:13.791Z,24.90
2019-02-02T04:07:44.065Z,25.47
2019-02-02T04:10:14.813Z,25.13
2019-02-02T04:12:44.986Z,25.00
2019-02-02T04:15:16.165Z,23.60
2019-02-02T04:17:46.457Z,24.43
2019-02-02T04:20:19.864Z,24.23
2019-02-02T04:22:50.972Z,23.57
2019-02-02T04:25:22.552Z,24.50
2019-02-02T04:27:52.857Z,23.83
2019-02-02T04:30:25.433Z,25.50
2019-02-02T04:32:55.769Z,25.83
2019-02-02T04:35:26.336Z,25.13
2019-02-02T04:37:56.798Z,25.17
2019-02-02T04:40:27.265Z,25.50
2019-02-02T04:42:57.525Z,25.83
2019-02-02T04:45:27.679Z,27.27
2019-02-02T04:47:58.000Z,26.17
2019-02-02T04:50:28.169Z,25.23
2019-02-02T04:52:58.382Z,25.00
2019-02-02T04:55:28.845Z,24.60
2019-02-02T04:57:59.134Z,23.20
2019-02-02T05:00:29.396Z,24.20
2019-02-02T05:02:59.826Z,24.57
2019-02-02T05:05:30.319Z,24.23
2019-02-02T05:08:01.016Z,24.27
2019-02-02T05:10:31.290Z,24.47
2019-02-02T05:13:01.625Z,23.60
2019-02-02T05:15:31.860Z,24.50
2019-02-02T05:18:02.345Z,24.13
2019-02-02T05:20:32.764Z,25.57
2019-02-02T05:23:03.466Z,24.93
2019-02-02T05:25:34.037Z,26.97
2019-02-02T05:28:04.458Z,26.57
2019-02-02T05:30:35.199Z,23.77
2019-02-02T05:33:05.607Z,24.63
2019-02-02T05:35:36.106Z,24.63
2019-02-02T05:38:07.004Z,24.60
2019-02-02T05:40:38.240Z,24.77
2019-02-02T05:43:08.580Z,23.50
2019-02-02T05:45:38.853Z,24.23
2019-02-02T05:48:09.187Z,24.60
2019-02-02T05:50:39.581Z,24.40
2019-02-02T05:53:10.052Z,24.57
2019-02-02T05:55:40.663Z,24.77
2019-02-02T05:58:11.516Z,24.80
2019-02-02T06:00:45.775Z,24.97
2019-02-02T06:03:16.153Z,24.33
2019-02-02T06:05:46.736Z,25.57
2019-02-02T06:08:16.944Z,26.23
2019-02-02T06:10:47.429Z,26.20
2019-02-02T06:13:17.770Z,23.67
2019-02-02T06:15:48.155Z,25.03
2019-02-02T06:18:18.430Z,25.63
2019-02-02T06:20:48.807Z,25.30
2019-02-02T06:23:19.068Z,24.90
2019-02-02T06:25:49.486Z,24.97
2019-02-02T06:28:19.811Z,23.83
2019-02-02T06:30:50.487Z,23.30
2019-02-02T06:33:21.106Z,24.20
2019-02-02T06:35:51.518Z,23.70
2019-02-02T06:38:21.829Z,24.37
2019-02-02T06:40:52.193Z,24.10
2019-02-02T06:43:22.449Z,24.37
2019-02-02T06:45:52.719Z,25.20
2019-02-02T06:48:23.029Z,24.07
2019-02-02T06:50:53.678Z,24.93
2019-02-02T06:53:24.113Z,24.73
2019-02-02T06:55:54.495Z,24.77
2019-02-02T06:58:24.839Z,23.63
2019-02-02T07:00:55.255Z,23.90
2019-02-02T07:03:25.702Z,22.90
2019-02-02T07:06:30.051Z,23.77
2019-02-02T07:09:00.342Z,22.67
2019-02-02T07:11:30.750Z,24.63
2019-02-02T07:14:00.979Z,23.87
2019-02-02T07:16:31.369Z,24.50
2019-02-02T07:19:01.634Z,24.43
2019-02-02T07:21:32.042Z,23.00
2019-02-02T07:24:02.376Z,24.00
2019-02-02T07:26:32.651Z,23.57
2019-02-02T07:29:02.865Z,23.33
2019-02-02T07:31:33.108Z,23.60
2019-02-02T07:34:03.525Z,23.50
2019-02-02T07:36:33.816Z,22.97
2019-02-02T07:39:06.569Z,22.57
2019-02-02T07:41:36.903Z,22.43
2019-02-02T07:44:07.534Z,22.67
2019-02-02T07:46:37.939Z,22.17
2019-02-02T07:49:08.353Z,20.47
2019-02-02T07:51:38.631Z,21.53
2019-02-02T07:54:09.038Z,23.07
2019-02-02T07:56:39.930Z,22.40
2019-02-02T07:59:10.220Z,22.37
2019-02-02T08:01:40.996Z,22.03
2019-02-02T08:04:11.417Z,23.20
2019-02-02T08:06:41.736Z,22.00
2019-02-02T08:09:12.081Z,23.43
2019-02-02T08:11:42.738Z,21.63
2019-02-02T08:14:13.024Z,21.87
2019-02-02T08:16:43.421Z,21.57
2019-02-02T08:19:13.788Z,22.40
2019-02-02T08:21:44.367Z,22.10
2019-02-02T08:24:14.734Z,22.20
2019-02-02T08:26:45.122Z,21.83
2019-02-02T08:29:15.400Z,22.33
2019-02-02T08:31:45.655Z,21.80
2019-02-02T08:34:18.377Z,23.20
2019-02-02T08:36:48.846Z,21.27
2019-02-02T08:39:29.007Z,21.33
2019-02-02T08:41:51.584Z,20.77
2019-02-02T08:44:22.192Z,24.60
2019-02-02T08:46:52.930Z,22.37
2019-02-02T08:49:23.344Z,22.33
2019-02-02T08:51:55.168Z,21.73
2019-02-02T08:54:25.473Z,23.67
2019-02-02T08:56:56.155Z,23.23
2019-02-02T08:59:26.714Z,22.33
2019-02-02T09:01:57.036Z,23.30
2019-02-02T09:04:27.411Z,23.57
2019-02-02T09:06:57.820Z,22.13
2019-02-02T09:09:28.048Z,21.13
2019-02-02T09:11:58.396Z,21.77
2019-02-02T09:14:28.826Z,22.53
2019-02-02T09:16:59.388Z,22.83
2019-02-02T09:19:29.676Z,22.63
2019-02-02T09:22:00.076Z,22.57
2019-02-02T09:24:30.646Z,22.37
2019-02-02T09:27:01.023Z,21.70
2019-02-02T09:29:31.458Z,23.10
2019-02-02T09:32:01.734Z,22.43
2019-02-02T09:34:31.981Z,22.53
2019-02-02T09:37:02.332Z,21.87
2019-02-02T09:39:32.840Z,23.13
2019-02-02T09:42:03.745Z,22.37
2019-02-02T09:44:33.982Z,24.27
2019-02-02T09:47:04.377Z,24.27
2019-02-02T09:49:34.689Z,24.33
2019-02-02T09:52:05.194Z,23.50
2019-02-02T09:54:35.460Z,25.30
2019-02-02T09:57:06.205Z,24.27
2019-02-02T09:59:36.546Z,23.70
2019-02-02T10:02:06.993Z,25.33
2019-02-02T10:04:37.313Z,26.03
2019-02-02T10:07:07.688Z,25.03
2019-02-02T10:09:37.884Z,26.13
2019-02-02T10:12:08.676Z,27.37
2019-02-02T10:14:39.011Z,26.83
2019-02-02T10:17:09.444Z,25.80
2019-02-02T10:19:40.156Z,27.00
2019-02-02T10:22:10.534Z,26.43
2019-02-02T10:24:41.209Z,25.90
2019-02-02T10:27:11.375Z,24.37
2019-02-02T10:29:41.760Z,24.80
2019-02-02T10:32:12.187Z,25.03
2019-02-02T10:34:42.443Z,23.30
2019-02-02T10:37:12.828Z,26.10
2019-02-02T10:39:43.050Z,24.50
2019-02-02T10:42:13.398Z,24.20
2019-02-02T10:44:43.594Z,26.10
2019-02-02T10:47:13.812Z,25.50
2019-02-02T10:49:44.219Z,26.37
2019-02-02T10:52:14.888Z,27.43
2019-02-02T10:54:45.146Z,27.57
2019-02-02T10:57:15.382Z,27.53
2019-02-02T10:59:48.811Z,26.87
2019-02-02T11:02:17.969Z,26.93
2019-02-02T11:04:48.329Z,27.57
2019-02-02T11:07:18.631Z,26.97
2019-02-02T11:09:49.051Z,27.77
2019-02-02T11:12:19.339Z,28.47
2019-02-02T11:14:49.853Z,31.47
2019-02-02T11:17:20.142Z,28.37
2019-02-02T11:19:50.820Z,29.93
2019-02-02T11:22:21.196Z,30.33
2019-02-02T11:24:51.228Z,30.40
2019-02-02T11:27:21.615Z,30.10
2019-02-02T11:29:51.738Z,29.80
2019-02-02T11:32:21.874Z,29.60
2019-02-02T11:34:51.973Z,31.13
2019-02-02T11:37:22.090Z,31.57
2019-02-02T11:39:52.268Z,30.87
2019-02-02T11:42:23.290Z,32.13
2019-02-02T11:44:53.586Z,31.93
2019-02-02T11:47:23.875Z,31.83
2019-02-02T11:49:54.073Z,33.30
2019-02-02T11:52:24.188Z,35.30
2019-02-02T11:54:54.492Z,30.37
2019-02-02T11:57:25.034Z,29.77
2019-02-02T11:59:55.221Z,30.80
2019-02-02T12:02:25.378Z,29.63
2019-02-02T12:04:55.578Z,30.33
2019-02-02T12:07:26.047Z,28.20
2019-02-02T12:09:56.290Z,28.77
2019-02-02T12:12:26.384Z,29.10
2019-02-02T12:14:57.455Z,29.37
2019-02-02T12:17:27.731Z,30.20
2019-02-02T12:19:57.867Z,31.83
2019-02-02T12:22:27.988Z,31.47
2019-02-02T12:24:58.178Z,30.47
2019-02-02T12:27:28.344Z,31.70
2019-02-02T12:29:58.443Z,31.43
2019-02-02T12:32:28.843Z,30.27
2019-02-02T12:34:59.400Z,29.17
2019-02-02T12:37:30.333Z,27.57
2019-02-02T12:40:00.495Z,26.60
2019-02-02T12:42:30.690Z,26.70
2019-02-02T12:45:00.874Z,28.43
2019-02-02T12:47:31.111Z,27.83
2019-02-02T12:50:01.281Z,27.60
2019-02-02T12:52:31.525Z,27.47
2019-02-02T12:55:01.699Z,27.97
2019-02-02T12:57:31.985Z,28.67
2019-02-02T13:00:02.477Z,27.60
2019-02-02T13:02:38.314Z,28.70
2019-02-02T13:05:05.771Z,27.97
2019-02-02T13:07:36.164Z,26.47
2019-02-02T13:10:08.458Z,27.60
2019-02-02T13:12:38.635Z,26.10
2019-02-02T13:15:09.394Z,25.10
2019-02-02T13:17:39.598Z,24.53
2019-02-02T13:20:11.646Z,24.17
2019-02-02T13:22:42.235Z,25.37
2019-02-02T13:25:15.366Z,23.70
2019-02-02T13:27:46.029Z,24.23
2019-02-02T13:30:26.718Z,24.33
2019-02-02T13:32:56.990Z,24.90
2019-02-02T13:35:27.607Z,26.70
2019-02-02T13:37:58.179Z,26.50
2019-02-02T13:40:28.510Z,26.77
2019-02-02T13:42:59.111Z,25.27
2019-02-02T13:45:29.354Z,25.87
2019-02-02T13:48:00.339Z,26.03
2019-02-02T13:50:30.652Z,26.23
2019-02-02T13:53:00.946Z,27.57
2019-02-02T13:55:31.167Z,26.03
2019-02-02T13:58:01.345Z,26.57
2019-02-02T14:00:32.745Z,26.83
2019-02-02T14:03:03.837Z,25.67
2019-02-02T14:05:34.352Z,25.70
2019-02-02T14:08:05.134Z,26.80
2019-02-02T14:10:36.339Z,25.17
2019-02-02T14:13:06.686Z,24.23
2019-02-02T14:15:39.117Z,24.00
2019-02-02T14:18:09.047Z,24.73
2019-02-02T14:20:39.211Z,24.30
2019-02-02T14:23:09.730Z,26.80
2019-02-02T14:25:40.307Z,27.57
2019-02-02T14:28:10.596Z,24.83
2019-02-02T14:30:40.837Z,24.57
2019-02-02T14:33:14.346Z,25.77
2019-02-02T14:35:42.990Z,26.80
2019-02-02T14:38:13.169Z,25.53
2019-02-02T14:40:43.268Z,24.73
2019-02-02T14:43:13.540Z,23.03
2019-02-02T14:45:43.815Z,24.63
2019-02-02T14:48:14.170Z,24.80
2019-02-02T14:50:44.287Z,24.60
2019-02-02T14:53:16.648Z,24.93
2019-02-02T14:55:47.259Z,24.33
2019-02-02T14:58:17.514Z,24.03
2019-02-02T15:00:47.853Z,24.17
2019-02-02T15:03:25.407Z,25.70
2019-02-02T15:05:50.058Z,24.77
2019-02-02T15:08:20.214Z,24.17
2019-02-02T15:10:50.376Z,22.40
2019-02-02T15:13:20.541Z,25.90
2019-02-02T15:15:51.024Z,26.63
2019-02-02T15:18:21.247Z,27.30
2019-02-02T15:20:51.377Z,27.00
2019-02-02T15:23:21.649Z,25.37
2019-02-02T15:25:52.088Z,27.10
2019-02-02T15:28:22.683Z,27.43
2019-02-02T15:30:53.020Z,28.37
2019-02-02T15:33:23.116Z,29.10
2019-02-02T15:35:53.293Z,26.33
2019-02-02T15:38:23.519Z,27.47
2019-02-02T15:40:59.099Z,28.77
2019-02-02T15:43:25.595Z,25.67
2019-02-02T15:45:55.987Z,27.37
2019-02-02T15:48:26.255Z,34.60
2019-02-02T15:50:56.535Z,33.93
2019-02-02T15:53:26.794Z,31.13
2019-02-02T15:55:57.106Z,29.77
2019-02-02T15:58:27.188Z,28.77
2019-02-02T16:00:57.289Z,31.07
2019-02-02T16:03:27.454Z,23.57
2019-02-02T16:05:57.687Z,24.80
2019-02-02T16:08:27.831Z,23.47
2019-02-02T16:10:58.077Z,22.53
2019-02-02T16:13:28.231Z,22.67
2019-02-02T16:15:58.480Z,24.57
2019-02-02T16:18:28.900Z,24.87
2019-02-02T16:20:59.064Z,27.87
2019-02-02T16:23:29.153Z,28.30
2019-02-02T16:25:59.415Z,28.53
2019-02-02T16:28:29.657Z,27.27
2019-02-02T16:31:00.189Z,29.63
2019-02-02T16:33:30.417Z,25.80
2019-02-02T16:36:00.825Z,26.63
2019-02-02T16:38:30.908Z,25.67
2019-02-02T16:41:01.409Z,25.83
2019-02-02T16:43:31.707Z,26.13
2019-02-02T16:46:01.891Z,27.80
2019-02-02T16:48:32.052Z,26.90
2019-02-02T16:51:02.209Z,25.03
2019-02-02T16:53:32.296Z,25.13
2019-02-02T16:56:02.568Z,27.90
2019-02-02T16:58:32.806Z,26.40
2019-02-02T17:01:02.959Z,31.23
2019-02-02T17:03:33.039Z,31.53
2019-02-02T17:06:03.294Z,31.03
2019-02-02T17:08:33.472Z,29.53
2019-02-02T17:11:03.857Z,33.93
2019-02-02T17:13:33.989Z,35.47
2019-02-02T17:16:04.880Z,34.83
2019-02-02T17:18:35.346Z,35.40
2019-02-02T17:21:05.974Z,35.87
2019-02-02T17:23:36.117Z,34.60
2019-02-02T17:26:09.523Z,35.10
2019-02-02T17:28:40.139Z,33.97
2019-02-02T17:31:11.568Z,32.60
2019-02-02T17:33:42.589Z,33.07
2019-02-02T17:36:12.984Z,33.00
2019-02-02T17:38:43.293Z,33.37
2019-02-02T17:41:13.597Z,34.30
2019-02-02T17:43:43.888Z,33.60
2019-02-02T17:46:14.227Z,32.13
2019-02-02T17:48:44.591Z,32.20
2019-02-02T17:51:14.862Z,32.90
2019-02-02T17:53:45.022Z,32.63
2019-02-02T17:56:15.299Z,32.43
2019-02-02T17:58:45.871Z,31.67
2019-02-02T18:01:16.150Z,31.67
2019-02-02T18:03:46.456Z,32.77
2019-02-02T18:06:16.782Z,33.27
2019-02-02T18:08:47.395Z,32.77
2019-02-02T18:11:18.083Z,35.00
2019-02-02T18:13:48.387Z,37.13
2019-02-02T18:16:18.677Z,38.90
2019-02-02T18:18:48.956Z,38.47
2019-02-02T18:21:19.253Z,39.23
2019-02-02T18:23:49.522Z,38.87
2019-02-02T18:26:20.051Z,37.27
2019-02-02T18:28:53.722Z,37.17
2019-02-02T18:31:22.598Z,36.07
2019-02-02T18:33:52.772Z,37.57
2019-02-02T18:36:23.173Z,36.97
2019-02-02T18:38:53.548Z,37.70
2019-02-02T18:41:23.815Z,38.60
2019-02-02T18:43:53.965Z,38.13
2019-02-02T18:46:24.627Z,38.40
2019-02-02T18:48:54.846Z,39.83
2019-02-02T18:51:25.212Z,39.30
2019-02-02T18:53:56.462Z,39.07
2019-02-02T18:56:27.058Z,38.80
2019-02-02T18:58:57.304Z,39.37
2019-02-02T19:01:27.904Z,39.93
2019-02-02T19:03:58.596Z,39.47
2019-02-02T19:06:28.882Z,39.53
2019-02-02T19:08:59.448Z,38.90
2019-02-02T19:11:29.665Z,37.90
2019-02-02T19:14:00.064Z,38.07
2019-02-02T19:16:30.658Z,37.77
2019-02-02T19:19:01.038Z,36.50
2019-02-02T19:21:31.232Z,36.40
2019-02-02T19:24:01.443Z,36.80
2019-02-02T19:26:31.749Z,36.53
2019-02-02T19:29:02.106Z,36.87
2019-02-02T19:31:32.593Z,36.70
2019-02-02T19:34:03.287Z,36.97
2019-02-02T19:36:33.958Z,35.17
2019-02-02T19:39:05.786Z,34.83
2019-02-02T19:41:36.086Z,36.83
2019-02-02T19:44:06.573Z,36.27
2019-02-02T19:46:36.925Z,35.03
2019-02-02T19:49:07.225Z,32.93
2019-02-02T19:51:37.686Z,33.20
2019-02-02T19:54:08.083Z,33.40
2019-02-02T19:56:38.375Z,31.23
2019-02-02T19:59:08.753Z,32.73
2019-02-02T20:01:41.317Z,30.73
2019-02-02T20:04:11.567Z,29.83
2019-02-02T20:06:41.971Z,29.03
2019-02-02T20:09:12.467Z,28.87
2019-02-02T20:11:42.840Z,26.73
2019-02-02T20:14:12.923Z,28.10
2019-02-02T20:16:43.335Z,27.63
2019-02-02T20:19:13.771Z,27.03
2019-02-02T20:21:44.614Z,26.77
2019-02-02T20:24:15.132Z,25.67
2019-02-02T20:26:45.355Z,26.70
2019-02-02T20:29:15.669Z,27.20
2019-02-02T20:31:46.017Z,27.23
2019-02-02T20:34:16.549Z,26.93
2019-02-02T20:36:46.766Z,27.97
2019-02-02T20:39:16.995Z,27.07
2019-02-02T20:41:47.576Z,28.57
2019-02-02T20:44:17.878Z,30.17
2019-02-02T20:46:48.270Z,30.87
2019-02-02T20:49:18.595Z,29.27
2019-02-02T20:51:49.264Z,29.93
2019-02-02T20:54:20.253Z,29.67
2019-02-02T20:56:51.189Z,30.60
2019-02-02T20:59:21.506Z,29.87
2019-02-02T21:01:51.875Z,29.07
2019-02-02T21:04:22.586Z,28.23
2019-02-02T21:06:52.991Z,29.40
2019-02-02T21:09:23.532Z,28.67
2019-02-02T21:11:56.935Z,29.37
2019-02-02T21:14:26.114Z,28.23
2019-02-02T21:16:56.561Z,29.33
2019-02-02T21:19:27.472Z,27.57
2019-02-02T21:21:57.917Z,28.20
2019-02-02T21:24:28.103Z,29.33
2019-02-02T21:26:58.710Z,28.07
2019-02-02T21:29:29.301Z,27.03
2019-02-02T21:32:00.640Z,26.83
2019-02-02T21:34:31.400Z,26.50
2019-02-02T21:37:01.849Z,26.20
2019-02-02T21:39:32.435Z,27.03
2019-02-02T21:42:02.883Z,26.63
2019-02-02T21:44:42.807Z,26.37
2019-02-02T21:47:05.550Z,26.10
2019-02-02T21:49:35.948Z,23.90
2019-02-02T21:52:06.770Z,25.10
2019-02-02T21:54:37.029Z,24.57
2019-02-02T21:57:07.414Z,24.60
2019-02-02T21:59:37.736Z,25.30
2019-02-02T22:02:08.100Z,26.57
2019-02-02T22:04:41.341Z,26.53
2019-02-02T22:07:10.773Z,27.23
2019-02-02T22:09:44.016Z,27.70
2019-02-02T22:12:14.103Z,24.83
2019-02-02T22:14:44.484Z,26.60
2019-02-02T22:17:14.914Z,27.33
2019-02-02T22:19:45.569Z,27.63
2019-02-02T22:22:16.307Z,27.43
2019-02-02T22:24:46.777Z,25.57
2019-02-02T22:27:17.287Z,25.87
2019-02-02T22:29:47.657Z,25.03
2019-02-02T22:32:18.475Z,26.00
2019-02-02T22:34:48.877Z,25.83
2019-02-02T22:37:19.539Z,26.23
2019-02-02T22:39:49.966Z,26.03
2019-02-02T22:42:20.547Z,27.17
2019-02-02T22:44:51.663Z,25.27
2019-02-02T22:47:21.950Z,26.27
2019-02-02T22:49:53.309Z,25.37
2019-02-02T22:52:23.816Z,25.70
2019-02-02T22:54:54.033Z,25.80
2019-02-02T22:57:24.513Z,25.90
2019-02-02T22:59:55.414Z,24.90
2019-02-02T23:02:25.972Z,24.87
2019-02-02T23:05:45.133Z,25.07
2019-02-02T23:08:44.876Z,25.03
2019-02-02T23:11:50.819Z,25.60
2019-02-02T23:14:53.099Z,24.17
2019-02-02T23:17:23.548Z,27.43
2019-02-02T23:19:53.895Z,27.23
2019-02-02T23:22:24.368Z,29.33
2019-02-02T23:24:55.247Z,26.77
2019-02-02T23:27:25.638Z,27.20
2019-02-02T23:29:56.296Z,24.83
2019-02-02T23:32:26.723Z,23.10
2019-02-02T23:34:57.137Z,22.60
2019-02-02T23:37:27.862Z,24.27
2019-02-02T23:39:58.565Z,23.83
2019-02-02T23:42:28.813Z,23.77
2019-02-02T23:44:59.268Z,23.80
2019-02-02T23:47:29.804Z,22.10
2019-02-02T23:50:00.102Z,23.53
2019-02-02T23:52:30.470Z,23.97
2019-02-02T23:55:00.813Z,21.83
2019-02-02T23:57:31.333Z,21.13
